createdAt,value
2022-09-01T00:01:10.391Z,71.60
2022-09-01T00:06:10.305Z,68.60
2022-09-01T00:11:10.236Z,68.94
2022-09-01T00:16:10.307Z,70.52
2022-09-01T00:21:10.151Z,70.12
2022-09-01T00:26:10.089Z,69.68
2022-09-01T00:31:10.131Z,69.89
2022-09-01T00:36:09.926Z,69.48
2022-09-01T00:41:09.830Z,69.78
2022-09-01T00:46:09.873Z,70.52
2022-09-01T00:51:09.709Z,70.52
2022-09-01T00:56:12.789Z,69.78
2022-09-01T01:01:09.729Z,71.57
2022-09-01T01:06:09.615Z,68.33
2022-09-01T01:11:09.474Z,68.60
2022-09-01T01:16:09.479Z,70.18
2022-09-01T01:21:09.559Z,72.11
2022-09-01T01:26:09.345Z,72.11
2022-09-01T01:31:09.226Z,74.78
2022-09-01T01:36:09.148Z,75.93
2022-09-01T01:41:09.060Z,77.02
2022-09-01T01:46:09.135Z,76.92
2022-09-01T01:51:09.016Z,76.98
2022-09-01T01:56:11.957Z,75.12
2022-09-01T02:01:08.989Z,77.02
2022-09-01T02:06:16.984Z,77.56
2022-09-01T02:11:16.262Z,78.28
2022-09-01T02:16:08.726Z,77.77
2022-09-01T02:21:08.848Z,78.92
2022-09-01T02:26:17.234Z,78.92
2022-09-01T02:31:09.547Z,79.98
2022-09-01T02:36:08.392Z,79.68
2022-09-01T02:41:08.603Z,80.18
2022-09-01T02:46:08.283Z,80.38
2022-09-01T02:51:08.299Z,79.98
2022-09-01T02:56:11.204Z,80.02
2022-09-01T03:01:08.012Z,81.93
2022-09-01T03:06:07.898Z,79.77
2022-09-01T03:11:12.675Z,79.06
2022-09-01T03:16:09.751Z,80.97
2022-09-01T03:21:07.676Z,80.16
2022-09-01T03:26:07.757Z,81.38
2022-09-01T03:31:07.603Z,81.21
2022-09-01T03:36:14.791Z,81.72
2022-09-01T03:41:08.528Z,80.32
2022-09-01T03:46:07.367Z,80.66
2022-09-01T03:51:07.318Z,82.33
2022-09-01T03:56:10.294Z,80.87
2022-09-01T04:01:08.283Z,82.88
2022-09-01T04:06:08.206Z,82.03
2022-09-01T04:11:07.021Z,83.29
2022-09-01T04:16:07.035Z,81.48
2022-09-01T04:21:06.923Z,80.08
2022-09-01T04:26:07.980Z,81.04
2022-09-01T04:31:06.811Z,82.26
2022-09-01T04:36:06.778Z,78.89
2022-09-01T04:41:06.618Z,78.55
2022-09-01T04:46:06.923Z,78.20
2022-09-01T04:51:06.466Z,76.20
2022-09-01T04:56:09.449Z,72.11
2022-09-01T05:01:06.510Z,74.44
2022-09-01T05:06:06.495Z,73.70
2022-09-01T05:11:06.252Z,74.00
2022-09-01T05:16:06.307Z,73.70
2022-09-01T05:21:06.179Z,73.25
2022-09-01T05:26:06.190Z,72.65
2022-09-01T05:31:06.074Z,72.08
2022-09-01T05:36:07.201Z,71.57
2022-09-01T05:41:05.800Z,71.47
2022-09-01T05:46:07.278Z,70.79
2022-09-01T05:51:05.742Z,69.08
2022-09-01T05:56:08.766Z,64.02
2022-09-01T06:01:05.738Z,63.68
2022-09-01T06:06:05.535Z,58.66
2022-09-01T06:11:05.466Z,56.45
2022-09-01T06:16:05.791Z,54.92
2022-09-01T06:21:05.297Z,56.55
2022-09-01T06:26:13.240Z,57.50
2022-09-01T06:31:05.243Z,58.99
2022-09-01T06:36:05.427Z,58.76
2022-09-01T06:41:05.142Z,60.06
2022-09-01T06:46:05.127Z,59.99
2022-09-01T06:51:21.497Z,59.66
2022-09-01T06:56:08.923Z,59.44
2022-09-01T07:01:04.872Z,58.91
2022-09-01T07:06:04.888Z,57.05
2022-09-01T07:12:07.265Z,57.12
2022-09-01T07:21:35.808Z,57.09
2022-09-01T07:26:05.701Z,55.52
2022-09-01T07:51:36.504Z,56.29
2022-09-01T07:56:08.119Z,56.02
2022-09-01T08:01:04.221Z,56.32
2022-09-01T08:06:03.994Z,56.12
2022-09-01T08:11:04.718Z,56.09
2022-09-01T08:16:08.486Z,57.57
2022-09-01T08:21:05.135Z,58.58
2022-09-01T08:26:03.844Z,57.95
2022-09-01T08:31:08.990Z,57.95
2022-09-01T08:36:04.794Z,58.61
2022-09-01T08:41:03.665Z,58.50
2022-09-01T08:46:11.604Z,58.68
2022-09-01T08:51:05.196Z,59.31
2022-09-01T08:56:06.518Z,59.74
2022-09-01T09:01:03.397Z,60.27
2022-09-01T09:06:11.170Z,58.40
2022-09-01T09:11:10.719Z,59.31
2022-09-01T09:16:11.062Z,58.45
2022-09-01T09:21:03.209Z,59.45
2022-09-01T09:26:03.515Z,57.78
2022-09-01T09:31:03.260Z,57.60
2022-09-01T09:36:02.959Z,57.68
2022-09-01T09:41:25.451Z,57.32
2022-09-01T09:46:03.926Z,56.42
2022-09-01T09:51:02.735Z,56.02
2022-09-01T09:56:05.858Z,55.12
2022-09-01T10:01:03.788Z,55.82
2022-09-01T10:06:02.391Z,54.92
2022-09-01T10:11:02.318Z,53.07
2022-09-01T10:16:03.708Z,54.47
2022-09-01T10:21:02.233Z,53.47
2022-09-01T10:26:05.685Z,51.54
2022-09-01T10:31:02.047Z,51.94
2022-09-01T10:36:09.266Z,49.90
2022-09-01T10:41:01.870Z,49.30
2022-09-01T10:46:05.827Z,49.90
2022-09-01T10:51:03.122Z,48.13
2022-09-01T10:56:18.857Z,47.58
2022-09-01T11:02:35.936Z,45.00
2022-09-01T11:07:14.495Z,47.06
2022-09-01T11:12:13.146Z,45.62
2022-09-01T11:17:13.160Z,43.29
2022-09-01T11:22:13.225Z,44.08
2022-09-01T11:27:13.070Z,44.48
2022-09-01T11:32:13.077Z,44.23
2022-09-01T11:37:13.799Z,42.83
2022-09-01T11:42:12.842Z,42.05
2022-09-01T11:47:14.511Z,39.31
2022-09-01T11:52:15.632Z,42.45
2022-09-01T11:57:12.655Z,44.42
2022-09-01T12:02:12.474Z,45.32
2022-09-01T12:07:12.276Z,46.12
2022-09-01T12:12:12.469Z,45.28
2022-09-01T12:17:12.222Z,45.30
2022-09-01T12:22:12.447Z,44.92
2022-09-01T12:27:12.123Z,45.44
2022-09-01T12:32:12.253Z,44.90
2022-09-01T12:37:12.002Z,45.24
2022-09-01T12:42:11.933Z,44.31
2022-09-01T12:47:11.815Z,44.62
2022-09-01T12:52:15.023Z,43.74
2022-09-01T12:57:11.830Z,43.76
2022-09-01T13:02:11.911Z,42.29
2022-09-01T13:07:11.690Z,42.91
2022-09-01T13:12:12.116Z,41.38
2022-09-01T13:17:14.179Z,40.30
2022-09-01T13:22:11.445Z,40.38
2022-09-01T13:27:26.819Z,41.47
2022-09-01T13:32:27.769Z,40.80
2022-09-01T13:37:12.237Z,39.09
2022-09-01T13:42:11.126Z,38.69
2022-09-01T13:52:15.061Z,40.12
2022-09-01T13:57:10.969Z,40.80
2022-09-01T14:02:10.822Z,40.32
2022-09-01T14:07:10.705Z,38.82
2022-09-01T14:12:10.795Z,38.25
2022-09-01T14:17:10.588Z,37.13
2022-09-01T14:22:11.052Z,37.62
2022-09-01T14:27:10.589Z,37.28
2022-09-01T14:32:10.537Z,34.11
2022-09-01T14:37:10.368Z,34.78
2022-09-01T14:42:18.141Z,35.74
2022-09-01T14:47:19.464Z,33.92
2022-09-01T14:52:21.143Z,32.42
2022-09-01T15:02:11.184Z,32.79
2022-09-01T15:07:10.105Z,33.00
2022-09-01T15:12:10.133Z,33.03
2022-09-01T15:17:09.921Z,32.28
2022-09-01T15:22:09.960Z,33.73
2022-09-01T15:27:09.744Z,35.27
2022-09-01T15:32:09.744Z,36.00
2022-09-01T15:37:10.926Z,38.51
2022-09-01T15:42:09.608Z,36.42
2022-09-01T15:47:09.559Z,36.93
2022-09-01T15:52:12.544Z,37.12
2022-09-01T15:57:09.263Z,38.03
2022-09-01T16:02:09.317Z,37.71
2022-09-01T16:07:09.134Z,39.03
2022-09-01T16:12:09.547Z,38.53
2022-09-01T16:17:08.949Z,39.86
2022-09-01T16:22:08.943Z,40.46
2022-09-01T16:27:08.957Z,41.28
2022-09-01T16:32:08.827Z,41.00
2022-09-01T16:37:08.819Z,41.39
2022-09-01T16:42:08.743Z,42.10
2022-09-01T16:47:08.742Z,42.41
2022-09-01T16:52:11.543Z,42.43
2022-09-01T16:57:08.588Z,42.76
2022-09-01T17:02:08.828Z,42.02
2022-09-01T17:07:08.447Z,42.33
2022-09-01T17:12:08.427Z,42.85
2022-09-01T17:17:08.222Z,43.15
2022-09-01T17:22:08.283Z,43.77
2022-09-01T17:27:08.375Z,43.79
2022-09-01T17:32:08.030Z,44.21
2022-09-01T17:37:08.055Z,44.70
2022-09-01T17:42:08.024Z,44.62
2022-09-01T17:47:10.200Z,46.14
2022-09-01T17:52:11.190Z,48.08
2022-09-01T17:57:10.963Z,50.89
2022-09-01T18:02:08.052Z,51.61
2022-09-01T18:07:07.682Z,52.47
2022-09-01T18:12:07.462Z,52.97
2022-09-01T18:17:07.584Z,53.70
2022-09-01T18:22:07.582Z,53.72
2022-09-01T18:27:07.380Z,53.52
2022-09-01T18:32:07.559Z,54.35
2022-09-01T18:37:07.137Z,54.48
2022-09-01T18:42:07.287Z,54.68
2022-09-01T18:47:06.939Z,52.92
2022-09-01T18:52:10.311Z,51.26
2022-09-01T18:57:15.390Z,50.96
2022-09-01T19:02:14.720Z,50.81
2022-09-01T19:07:06.911Z,51.46
2022-09-01T19:12:07.003Z,54.60
2022-09-01T19:17:06.640Z,55.23
2022-09-01T19:22:06.521Z,56.12
2022-09-01T19:27:06.571Z,56.22
2022-09-01T19:32:06.538Z,57.25
2022-09-01T19:37:06.337Z,57.45
2022-09-01T19:42:06.485Z,57.56
2022-09-01T19:47:06.386Z,59.53
2022-09-01T19:52:09.547Z,61.73
2022-09-01T19:57:13.956Z,62.16
2022-09-01T20:02:06.126Z,62.87
2022-09-01T20:07:06.189Z,62.37
2022-09-01T20:12:05.864Z,63.38
2022-09-01T20:17:05.950Z,65.59
2022-09-01T20:22:05.883Z,65.93
2022-09-01T20:27:05.757Z,66.88
2022-09-01T20:32:05.684Z,67.61
2022-09-01T20:37:05.684Z,67.99
2022-09-01T20:42:05.454Z,67.92
2022-09-01T20:47:05.477Z,68.12
2022-09-01T20:52:08.348Z,68.23
2022-09-01T20:57:05.243Z,68.32
2022-09-01T21:02:05.441Z,67.58
2022-09-01T21:07:05.074Z,67.38
2022-09-01T21:12:05.138Z,67.76
2022-09-01T21:17:05.159Z,67.89
2022-09-01T21:22:04.931Z,68.09
2022-09-01T21:27:04.802Z,67.85
2022-09-01T21:32:04.795Z,68.83
2022-09-01T21:37:04.723Z,69.24
2022-09-01T21:42:04.804Z,69.88
2022-09-01T21:47:04.580Z,69.54
2022-09-01T21:52:07.528Z,71.44
2022-09-01T21:57:04.463Z,72.72
2022-09-01T22:02:04.486Z,71.88
2022-09-01T22:07:04.323Z,71.57
2022-09-01T22:12:12.318Z,72.58
2022-09-01T22:17:04.651Z,74.18
2022-09-01T22:22:04.178Z,73.46
2022-09-01T22:27:04.046Z,74.82
2022-09-01T22:32:04.154Z,74.82
2022-09-01T22:37:03.864Z,75.57
2022-09-01T22:42:03.892Z,76.28
2022-09-01T22:47:03.867Z,76.07
2022-09-01T22:52:06.805Z,76.28
2022-09-01T22:57:03.718Z,77.78
2022-09-01T23:02:03.727Z,77.33
2022-09-01T23:07:03.527Z,75.84
2022-09-01T23:12:11.456Z,75.60
2022-09-01T23:17:03.331Z,77.53
2022-09-01T23:22:03.488Z,77.98
2022-09-01T23:27:03.279Z,77.23
2022-09-01T23:32:03.420Z,78.42
2022-09-01T23:37:03.151Z,79.64
2022-09-01T23:42:03.113Z,77.13
2022-09-01T23:47:03.103Z,78.35
2022-09-01T23:52:05.981Z,79.34
2022-09-01T23:57:02.888Z,80.74
